createdAt,value
2018-03-11T00:00:58.707Z,0.00
2018-03-11T00:01:58.658Z,0.00
2018-03-11T00:02:58.643Z,0.00
2018-03-11T00:03:58.633Z,0.00
2018-03-11T00:04:58.625Z,0.00
2018-03-11T00:05:58.609Z,0.00
2018-03-11T00:06:58.597Z,0.00
2018-03-11T00:07:58.604Z,0.00
2018-03-11T00:08:58.576Z,0.00
2018-03-11T00:09:58.585Z,0.00
2018-03-11T00:10:58.553Z,0.00
2018-03-11T00:11:58.542Z,0.00
2018-03-11T00:12:58.545Z,0.00
2018-03-11T00:13:58.526Z,0.00
2018-03-11T00:14:58.510Z,0.00
2018-03-11T00:15:58.500Z,0.00
2018-03-11T00:16:58.486Z,0.00
2018-03-11T00:17:58.474Z,0.00
2018-03-11T00:18:58.463Z,0.00
2018-03-11T00:19:58.452Z,0.00
2018-03-11T00:20:58.447Z,0.00
2018-03-11T00:21:58.429Z,0.00
2018-03-11T00:22:58.432Z,0.00
2018-03-11T00:23:58.467Z,0.00
2018-03-11T00:24:58.403Z,0.00
2018-03-11T00:25:58.384Z,0.00
2018-03-11T00:26:58.400Z,0.00
2018-03-11T00:27:58.392Z,0.00
2018-03-11T00:28:58.352Z,0.00
2018-03-11T00:29:58.396Z,0.00
2018-03-11T00:30:58.328Z,0.00
2018-03-11T00:31:58.318Z,0.00
2018-03-11T00:32:58.319Z,0.00
2018-03-11T00:33:58.294Z,0.00
2018-03-11T00:34:58.283Z,0.00
2018-03-11T00:35:58.272Z,0.00
2018-03-11T00:36:58.261Z,0.00
2018-03-11T00:37:58.257Z,0.00
2018-03-11T00:38:58.272Z,0.00
2018-03-11T00:39:58.227Z,0.00
2018-03-11T00:40:58.216Z,0.00
2018-03-11T00:41:58.204Z,0.00
2018-03-11T00:42:58.209Z,0.00
2018-03-11T00:43:58.182Z,0.00
2018-03-11T00:44:58.189Z,0.00
2018-03-11T00:45:58.163Z,0.00
2018-03-11T00:46:58.148Z,0.00
2018-03-11T00:47:58.137Z,0.00
2018-03-11T00:48:58.128Z,0.00
2018-03-11T00:49:58.115Z,0.00
2018-03-11T00:50:58.103Z,0.00
2018-03-11T00:51:58.095Z,0.00
2018-03-11T00:52:58.083Z,0.00
2018-03-11T00:53:58.087Z,0.00
2018-03-11T00:54:58.062Z,0.00
2018-03-11T00:55:58.090Z,0.00
2018-03-11T00:56:58.037Z,0.00
2018-03-11T00:57:58.034Z,0.00
2018-03-11T00:58:58.061Z,0.00
2018-03-11T00:59:58.002Z,0.00
2018-03-11T01:00:57.992Z,0.00
2018-03-11T01:01:58.002Z,0.00
2018-03-11T01:02:57.966Z,0.00
2018-03-11T01:03:57.955Z,0.00
2018-03-11T01:04:57.943Z,0.00
2018-03-11T01:05:57.932Z,0.00
2018-03-11T01:06:57.925Z,0.00
2018-03-11T01:07:57.925Z,0.00
2018-03-11T01:08:57.954Z,0.00
2018-03-11T01:09:57.894Z,0.00
2018-03-11T01:10:57.875Z,0.00
2018-03-11T01:11:57.890Z,0.00
2018-03-11T01:12:57.880Z,0.00
2018-03-11T01:13:57.840Z,0.00
2018-03-11T01:14:58.044Z,0.00
2018-03-11T01:15:57.818Z,0.00
2018-03-11T01:16:57.807Z,0.00
2018-03-11T01:17:57.810Z,0.00
2018-03-11T01:18:57.784Z,0.00
2018-03-11T01:19:57.772Z,0.00
2018-03-11T01:20:57.762Z,0.00
2018-03-11T01:21:57.749Z,0.00
2018-03-11T01:22:57.749Z,0.00
2018-03-11T01:23:57.760Z,0.00
2018-03-11T01:24:57.715Z,0.00
2018-03-11T01:25:57.703Z,0.00
2018-03-11T01:26:57.692Z,0.00
2018-03-11T01:27:57.699Z,0.00
2018-03-11T01:28:57.669Z,0.00
2018-03-11T01:29:57.676Z,0.00
2018-03-11T01:30:57.645Z,0.00
2018-03-11T01:31:57.634Z,0.00
2018-03-11T01:32:57.624Z,0.00
2018-03-11T01:33:57.610Z,0.00
2018-03-11T01:34:57.612Z,0.00
2018-03-11T01:35:57.588Z,0.00
2018-03-11T01:36:57.577Z,0.00
2018-03-11T01:37:57.564Z,0.00
2018-03-11T01:38:57.576Z,0.00
2018-03-11T01:39:57.542Z,0.00
2018-03-11T01:40:57.738Z,0.00
2018-03-11T01:41:57.518Z,0.00
2018-03-11T01:42:57.522Z,0.00
2018-03-11T01:44:57.494Z,0.00
2018-03-11T01:45:57.472Z,0.00
2018-03-11T01:46:57.492Z,0.00
2018-03-11T01:47:57.451Z,0.00
2018-03-11T01:48:57.439Z,0.00
2018-03-11T01:49:57.427Z,0.00
2018-03-11T01:50:57.416Z,0.00
2018-03-11T01:51:57.405Z,0.00
2018-03-11T01:52:57.406Z,0.00
2018-03-11T01:53:57.398Z,0.00
2018-03-11T01:54:57.371Z,0.00
2018-03-11T01:55:57.371Z,0.00
2018-03-11T01:56:57.348Z,0.00
2018-03-11T01:57:57.345Z,0.00
2018-03-11T01:58:57.360Z,0.00
2018-03-11T01:59:57.313Z,0.00
2018-03-11T02:00:57.303Z,0.00
2018-03-11T02:01:57.291Z,0.00
2018-03-11T02:02:57.280Z,0.00
2018-03-11T02:03:57.268Z,0.00
2018-03-11T02:04:57.257Z,0.00
2018-03-11T02:05:57.245Z,0.00
2018-03-11T02:06:57.237Z,0.00
2018-03-11T02:07:57.229Z,0.00
2018-03-11T02:08:57.253Z,0.00
2018-03-11T02:09:57.201Z,0.00
2018-03-11T02:10:57.188Z,0.00
2018-03-11T02:11:57.176Z,0.00
2018-03-11T02:12:57.167Z,0.00
2018-03-11T02:13:57.154Z,0.00
2018-03-11T02:14:57.164Z,0.00
2018-03-11T02:15:57.130Z,0.00
2018-03-11T02:16:57.119Z,0.00
2018-03-11T02:17:57.106Z,0.00
2018-03-11T02:18:57.095Z,0.00
2018-03-11T02:19:57.084Z,0.00
2018-03-11T02:20:57.073Z,0.00
2018-03-11T02:21:57.060Z,0.00
2018-03-11T02:22:57.050Z,0.00
2018-03-11T02:23:57.067Z,0.00
2018-03-11T02:24:57.028Z,0.00
2018-03-11T02:25:57.065Z,0.00
2018-03-11T02:26:57.004Z,0.00
2018-03-11T02:27:56.995Z,0.00
2018-03-11T02:28:56.990Z,0.00
2018-03-11T02:29:56.983Z,0.00
2018-03-11T02:30:56.959Z,0.00
2018-03-11T02:31:56.986Z,0.00
2018-03-11T02:32:56.936Z,0.00
2018-03-11T02:33:56.923Z,0.00
2018-03-11T02:34:56.913Z,0.00
2018-03-11T02:35:56.902Z,0.00
2018-03-11T02:36:56.890Z,0.00
2018-03-11T02:37:56.877Z,0.00
2018-03-11T02:38:56.885Z,0.00
2018-03-11T02:39:56.855Z,0.00
2018-03-11T02:40:56.860Z,0.00
2018-03-11T02:41:56.832Z,0.00
2018-03-11T02:42:56.824Z,0.00
2018-03-11T02:43:56.850Z,0.00
2018-03-11T02:44:56.801Z,0.00
2018-03-11T02:45:56.787Z,0.00
2018-03-11T02:46:56.777Z,0.00
2018-03-11T02:47:56.764Z,0.00
2018-03-11T02:48:56.753Z,0.00
2018-03-11T02:49:56.741Z,0.00
2018-03-11T02:50:56.729Z,0.00
2018-03-11T02:51:56.723Z,0.00
2018-03-11T02:52:56.710Z,0.00
2018-03-11T02:53:56.708Z,0.00
2018-03-11T02:54:56.740Z,0.00
2018-03-11T02:55:56.678Z,0.00
2018-03-11T02:56:56.662Z,0.00
2018-03-11T02:57:56.673Z,0.00
2018-03-11T02:58:56.666Z,0.00
2018-03-11T02:59:56.627Z,0.00
2018-03-11T03:00:56.662Z,0.00
2018-03-11T03:01:56.605Z,0.00
2018-03-11T03:02:56.594Z,0.00
2018-03-11T03:03:56.593Z,0.00
2018-03-11T03:04:56.575Z,0.00
2018-03-11T03:05:56.559Z,0.00
2018-03-11T03:06:56.549Z,0.00
2018-03-11T03:07:56.542Z,0.00
2018-03-11T03:08:56.563Z,0.00
2018-03-11T03:09:56.523Z,0.00
2018-03-11T03:10:56.504Z,0.00
2018-03-11T03:11:56.516Z,0.00
2018-03-11T03:12:56.482Z,0.00
2018-03-11T03:13:56.473Z,0.00
2018-03-11T03:14:56.489Z,0.00
2018-03-11T03:15:56.448Z,0.00
2018-03-11T03:16:56.439Z,0.00
2018-03-11T03:17:56.426Z,0.00
2018-03-11T03:18:56.414Z,0.00
2018-03-11T03:19:56.407Z,0.00
2018-03-11T03:20:56.393Z,0.00
2018-03-11T03:21:56.381Z,0.00
2018-03-11T03:22:56.370Z,0.00
2018-03-11T03:23:56.388Z,0.00
2018-03-11T03:24:56.349Z,0.00
2018-03-11T03:25:56.383Z,0.00
2018-03-11T03:26:56.325Z,0.00
2018-03-11T03:27:56.319Z,0.00
2018-03-11T03:28:56.311Z,0.00
2018-03-11T03:29:56.303Z,0.00
2018-03-11T03:30:56.283Z,0.00
2018-03-11T03:31:56.301Z,0.00
2018-03-11T03:32:56.261Z,0.00
2018-03-11T03:33:56.249Z,0.00
2018-03-11T03:34:56.238Z,0.00
2018-03-11T03:35:56.228Z,0.00
2018-03-11T03:36:56.216Z,0.00
2018-03-11T03:37:56.223Z,0.00
2018-03-11T03:38:56.396Z,0.00
2018-03-11T03:39:56.183Z,0.00
2018-03-11T03:40:56.181Z,0.00
2018-03-11T03:41:56.161Z,0.00
2018-03-11T03:42:56.156Z,0.00
2018-03-11T03:43:56.169Z,0.00
2018-03-11T03:44:56.128Z,0.00
2018-03-11T03:45:56.117Z,0.00
2018-03-11T03:46:56.105Z,0.00
2018-03-11T03:47:56.095Z,0.00
2018-03-11T03:48:56.083Z,0.00
2018-03-11T03:49:56.072Z,0.00
2018-03-11T03:50:56.061Z,0.00
2018-03-11T03:51:56.051Z,0.00
2018-03-11T03:52:56.064Z,0.00
2018-03-11T03:53:56.029Z,0.00
2018-03-11T03:54:56.236Z,0.00
2018-03-11T03:55:56.011Z,0.00
2018-03-11T03:56:55.996Z,0.00
2018-03-11T03:57:55.996Z,0.00
2018-03-11T03:58:55.987Z,0.00
2018-03-11T03:59:55.965Z,0.00
2018-03-11T04:00:55.988Z,0.00
2018-03-11T04:01:55.941Z,0.00
2018-03-11T04:02:55.930Z,0.00
2018-03-11T04:03:55.919Z,0.00
2018-03-11T04:04:55.909Z,0.00
2018-03-11T04:05:55.897Z,0.00
2018-03-11T04:06:55.886Z,0.00
2018-03-11T04:07:55.885Z,0.00
2018-03-11T04:08:56.090Z,0.00
2018-03-11T04:09:55.856Z,0.00
2018-03-11T04:10:55.841Z,0.00
2018-03-11T04:11:55.850Z,0.00
2018-03-11T04:12:55.844Z,0.00
2018-03-11T04:13:55.807Z,0.00
2018-03-11T04:15:55.787Z,0.00
2018-03-11T04:16:55.776Z,0.00
2018-03-11T04:17:55.796Z,0.00
2018-03-11T04:18:55.752Z,0.00
2018-03-11T04:19:55.742Z,0.00
2018-03-11T04:20:55.731Z,0.00
2018-03-11T04:21:55.740Z,0.00
2018-03-11T04:22:55.713Z,0.00
2018-03-11T04:23:55.732Z,0.00
2018-03-11T04:24:55.689Z,0.00
2018-03-11T04:25:55.675Z,0.00
2018-03-11T04:26:55.665Z,0.00
2018-03-11T04:27:55.661Z,0.00
2018-03-11T04:28:55.646Z,0.00
2018-03-11T04:29:55.638Z,0.00
2018-03-11T04:30:55.619Z,0.00
2018-03-11T04:31:55.608Z,0.00
2018-03-11T04:32:55.598Z,0.00
2018-03-11T04:33:55.589Z,0.00
2018-03-11T04:34:55.574Z,0.00
2018-03-11T04:35:55.567Z,0.00
2018-03-11T04:36:55.569Z,0.00
2018-03-11T04:37:55.771Z,0.00
2018-03-11T04:38:55.541Z,0.00
2018-03-11T04:39:55.518Z,0.00
2018-03-11T04:40:55.537Z,0.00
2018-03-11T04:41:55.523Z,0.00
2018-03-11T04:42:55.485Z,0.00
2018-03-11T04:43:55.696Z,0.00
2018-03-11T04:44:55.461Z,0.00
2018-03-11T04:45:55.449Z,0.00
2018-03-11T04:46:55.447Z,0.00
2018-03-11T04:47:55.427Z,0.00
2018-03-11T04:48:55.415Z,0.00
2018-03-11T04:49:55.403Z,0.00
2018-03-11T04:50:55.391Z,0.00
2018-03-11T04:51:55.388Z,0.00
2018-03-11T04:52:55.408Z,0.00
2018-03-11T04:53:55.358Z,0.00
2018-03-11T04:54:55.344Z,0.00
2018-03-11T04:55:55.335Z,0.00
2018-03-11T04:56:55.336Z,0.00
2018-03-11T04:57:55.309Z,0.00
2018-03-11T04:58:55.324Z,0.00
2018-03-11T04:59:55.288Z,0.00
2018-03-11T05:00:55.275Z,0.00
2018-03-11T05:01:55.264Z,0.00
2018-03-11T05:02:55.252Z,0.00
2018-03-11T05:03:55.241Z,0.00
2018-03-11T05:04:55.230Z,0.00
2018-03-11T05:05:55.219Z,0.00
2018-03-11T05:06:55.207Z,0.00
2018-03-11T05:07:55.206Z,0.00
2018-03-11T05:08:55.242Z,0.00
2018-03-11T05:09:55.174Z,0.00
2018-03-11T05:10:55.161Z,0.00
2018-03-11T05:11:55.176Z,0.00
2018-03-11T05:12:55.162Z,0.00
2018-03-11T05:13:55.126Z,0.00
2018-03-11T05:14:55.162Z,0.00
2018-03-11T05:15:55.104Z,0.00
2018-03-11T05:16:55.094Z,0.00
2018-03-11T05:17:55.086Z,0.00
2018-03-11T05:18:55.071Z,0.00
2018-03-11T05:19:55.060Z,0.00
2018-03-11T05:20:55.049Z,0.00
2018-03-11T05:21:55.060Z,0.00
2018-03-11T05:22:55.031Z,0.00
2018-03-11T05:23:55.048Z,0.00
2018-03-11T05:24:55.005Z,0.00
2018-03-11T05:25:54.992Z,0.00
2018-03-11T05:26:54.980Z,4.00
2018-03-11T05:27:54.987Z,4.00
2018-03-11T05:28:54.958Z,0.00
2018-03-11T05:29:54.958Z,0.00
2018-03-11T05:30:54.935Z,4.00
2018-03-11T05:31:54.924Z,4.00
2018-03-11T05:32:54.913Z,4.00
2018-03-11T05:33:54.902Z,4.00
2018-03-11T05:34:54.889Z,8.00
2018-03-11T05:35:54.878Z,8.00
2018-03-11T05:36:54.886Z,8.00
2018-03-11T05:37:54.855Z,8.00
2018-03-11T05:38:54.870Z,12.00
2018-03-11T05:39:54.867Z,12.00
2018-03-11T05:40:54.822Z,16.00
2018-03-11T05:41:55.039Z,20.00
2018-03-11T05:42:54.801Z,20.00
2018-03-11T05:43:54.788Z,20.00
2018-03-11T05:44:54.790Z,20.00
2018-03-11T05:45:54.764Z,24.00
2018-03-11T05:46:54.753Z,24.00
2018-03-11T05:47:54.742Z,24.00
2018-03-11T05:48:54.757Z,24.00
2018-03-11T05:49:54.719Z,28.00
2018-03-11T05:50:54.935Z,32.00
2018-03-11T05:51:54.696Z,36.00
2018-03-11T05:52:54.685Z,40.00
2018-03-11T05:53:54.681Z,44.00
2018-03-11T05:54:54.669Z,48.00
2018-03-11T05:55:54.650Z,48.00
2018-03-11T05:56:54.662Z,52.00
2018-03-11T05:57:54.627Z,60.00
2018-03-11T05:58:54.615Z,68.00
2018-03-11T05:59:54.605Z,72.00
2018-03-11T06:00:54.594Z,80.00
2018-03-11T06:01:54.629Z,92.00
2018-03-11T06:02:54.570Z,100.00
2018-03-11T06:03:54.762Z,112.00
2018-03-11T06:04:54.548Z,116.00
2018-03-11T06:05:54.608Z,120.00
2018-03-11T06:06:54.525Z,124.00
2018-03-11T06:07:54.552Z,128.00
2018-03-11T06:08:54.509Z,128.00
2018-03-11T06:09:54.694Z,132.00
2018-03-11T06:10:54.480Z,140.00
2018-03-11T06:11:54.472Z,144.00
2018-03-11T06:12:54.458Z,136.00
2018-03-11T06:13:54.445Z,132.00
2018-03-11T06:14:54.439Z,124.00
2018-03-11T06:15:54.424Z,116.00
2018-03-11T06:16:54.447Z,124.00
2018-03-11T06:17:54.402Z,132.00
2018-03-11T06:18:54.396Z,144.00
2018-03-11T06:19:54.380Z,148.00
2018-03-11T06:20:54.419Z,160.00
2018-03-11T06:21:54.355Z,180.00
2018-03-11T06:22:54.550Z,204.00
2018-03-11T06:23:54.333Z,244.00
2018-03-11T06:24:54.322Z,276.00
2018-03-11T06:25:54.309Z,380.00
2018-03-11T06:26:54.403Z,568.00
2018-03-11T06:27:54.286Z,752.00
2018-03-11T06:28:54.277Z,868.00
2018-03-11T06:29:54.306Z,960.00
2018-03-11T06:30:54.252Z,1032.00
2018-03-11T06:31:54.241Z,1100.00
2018-03-11T06:32:54.233Z,1124.00
2018-03-11T06:33:54.218Z,1088.00
2018-03-11T06:34:54.207Z,1040.00
2018-03-11T06:35:54.196Z,952.00
2018-03-11T06:36:54.190Z,820.00
2018-03-11T06:37:54.173Z,780.00
2018-03-11T06:38:54.186Z,816.00
2018-03-11T06:39:54.152Z,736.00
2018-03-11T06:40:54.342Z,720.00
2018-03-11T06:41:54.127Z,852.00
2018-03-11T06:42:54.116Z,1124.00
2018-03-11T06:43:54.204Z,1292.00
2018-03-11T06:44:54.093Z,1444.00
2018-03-11T06:45:54.081Z,1524.00
2018-03-11T06:46:54.123Z,1604.00
2018-03-11T06:47:54.060Z,1636.00
2018-03-11T06:48:54.049Z,1636.00
2018-03-11T06:49:54.035Z,1608.00
2018-03-11T06:50:54.025Z,1564.00
2018-03-11T06:51:54.013Z,1520.00
2018-03-11T06:52:54.002Z,1480.00
2018-03-11T06:53:53.994Z,1440.00
2018-03-11T06:54:53.982Z,1420.00
2018-03-11T06:55:53.968Z,1396.00
2018-03-11T06:56:53.957Z,1384.00
2018-03-11T06:57:54.037Z,1376.00
2018-03-11T06:58:53.933Z,1384.00
2018-03-11T06:59:53.922Z,1412.00
2018-03-11T07:00:54.115Z,1460.00
2018-03-11T07:01:53.903Z,1616.00
2018-03-11T07:02:53.890Z,1756.00
2018-03-11T07:03:53.924Z,1852.00
2018-03-11T07:04:53.867Z,1956.00
2018-03-11T07:05:53.857Z,2100.00
2018-03-11T07:06:53.848Z,2164.00
2018-03-11T07:07:53.841Z,2232.00
2018-03-11T07:08:53.822Z,2300.00
2018-03-11T07:09:53.810Z,2304.00
2018-03-11T07:10:53.843Z,2292.00
2018-03-11T07:11:53.789Z,2284.00
2018-03-11T07:12:53.984Z,2240.00
2018-03-11T07:13:53.768Z,2144.00
2018-03-11T07:14:53.758Z,2076.00
2018-03-11T07:15:53.962Z,2004.00
2018-03-11T07:16:53.735Z,1980.00
2018-03-11T07:17:53.725Z,2012.00
2018-03-11T07:18:53.760Z,1960.00
2018-03-11T07:19:53.707Z,1720.00
2018-03-11T07:20:53.694Z,1232.00
2018-03-11T07:21:53.722Z,852.00
2018-03-11T07:22:53.670Z,752.00
2018-03-11T07:23:53.660Z,752.00
2018-03-11T07:24:53.650Z,728.00
2018-03-11T07:25:53.638Z,716.00
2018-03-11T07:26:53.632Z,712.00
2018-03-11T07:27:53.624Z,784.00
2018-03-11T07:28:53.609Z,896.00
2018-03-11T07:29:53.654Z,856.00
2018-03-11T07:30:53.587Z,764.00
2018-03-11T07:31:53.579Z,628.00
2018-03-11T07:32:53.654Z,728.00
2018-03-11T07:33:53.559Z,908.00
2018-03-11T07:34:53.547Z,1016.00
2018-03-11T07:35:53.565Z,1108.00
2018-03-11T07:36:53.528Z,1120.00
2018-03-11T07:37:53.516Z,1112.00
2018-03-11T07:38:53.508Z,1268.00
2018-03-11T07:39:53.498Z,1392.00
2018-03-11T07:40:53.488Z,1332.00
2018-03-11T07:41:53.478Z,1180.00
2018-03-11T07:42:53.467Z,1152.00
2018-03-11T07:43:53.496Z,1396.00
2018-03-11T07:44:53.451Z,1420.00
2018-03-11T07:45:53.438Z,1280.00
2018-03-11T07:46:53.465Z,1292.00
2018-03-11T07:47:53.421Z,1564.00
2018-03-11T07:48:53.410Z,2032.00
2018-03-11T07:49:53.437Z,2424.00
2018-03-11T07:50:53.390Z,2584.00
2018-03-11T07:51:53.382Z,2360.00
2018-03-11T07:52:53.371Z,2520.00
2018-03-11T07:53:53.360Z,2536.00
2018-03-11T07:54:53.352Z,2552.00
2018-03-11T07:55:53.341Z,2756.00
2018-03-11T07:56:53.332Z,3140.00
2018-03-11T07:57:53.396Z,3292.00
2018-03-11T07:58:53.315Z,3288.00
2018-03-11T07:59:53.304Z,3876.00
2018-03-11T08:00:53.399Z,4256.00
2018-03-11T08:01:53.284Z,4044.00
2018-03-11T08:02:53.275Z,4212.00
2018-03-11T08:03:53.313Z,4704.00
2018-03-11T08:04:53.261Z,4712.00
2018-03-11T08:05:53.251Z,4708.00
2018-03-11T08:06:53.238Z,5136.00
2018-03-11T08:07:53.229Z,5456.00
2018-03-11T08:08:53.221Z,5744.00
2018-03-11T08:09:53.210Z,5760.00
2018-03-11T08:10:53.299Z,5700.00
2018-03-11T08:11:53.193Z,5756.00
2018-03-11T08:12:53.185Z,5516.00
2018-03-11T08:13:53.267Z,4668.00
2018-03-11T08:14:53.166Z,3580.00
2018-03-11T08:15:53.157Z,4088.00
2018-03-11T08:16:53.150Z,4960.00
2018-03-11T08:17:53.140Z,5968.00
2018-03-11T08:18:53.130Z,6308.00
2018-03-11T08:19:53.121Z,6192.00
2018-03-11T08:20:53.117Z,6104.00
2018-03-11T08:21:53.103Z,5836.00
2018-03-11T08:22:53.099Z,5028.00
2018-03-11T08:23:53.086Z,4564.00
2018-03-11T08:24:53.133Z,4196.00
2018-03-11T08:25:53.147Z,3964.00
2018-03-11T08:26:53.059Z,3596.00
2018-03-11T08:27:53.259Z,3096.00
2018-03-11T08:28:53.042Z,3192.00
2018-03-11T08:29:53.053Z,3328.00
2018-03-11T08:30:53.024Z,2900.00
2018-03-11T08:31:53.016Z,2820.00
2018-03-11T08:32:53.007Z,2532.00
2018-03-11T08:33:52.998Z,2200.00
2018-03-11T08:34:52.990Z,2468.00
2018-03-11T08:35:52.980Z,2820.00
2018-03-11T08:36:52.972Z,3284.00
2018-03-11T08:37:52.963Z,2804.00
2018-03-11T08:38:53.161Z,2000.00
2018-03-11T08:39:52.945Z,2360.00
2018-03-11T08:40:52.937Z,1912.00
2018-03-11T08:41:52.951Z,1904.00
2018-03-11T08:42:52.921Z,2104.00
2018-03-11T08:43:52.912Z,2132.00
2018-03-11T08:44:52.907Z,2644.00
2018-03-11T08:45:52.892Z,2944.00
2018-03-11T08:46:52.883Z,3324.00
2018-03-11T08:47:52.874Z,2940.00
2018-03-11T08:48:52.866Z,2844.00
2018-03-11T08:49:52.937Z,2704.00
2018-03-11T08:50:52.848Z,3164.00
2018-03-11T08:51:52.839Z,3148.00
2018-03-11T08:52:52.874Z,2800.00
2018-03-11T08:53:52.848Z,2860.00
2018-03-11T08:54:52.812Z,2380.00
2018-03-11T08:55:52.832Z,2004.00
2018-03-11T08:56:52.795Z,1988.00
2018-03-11T08:57:52.785Z,2588.00
2018-03-11T08:58:52.776Z,3184.00
2018-03-11T08:59:52.767Z,3888.00
2018-03-11T09:00:52.759Z,4036.00
2018-03-11T09:01:52.749Z,4196.00
2018-03-11T09:02:52.740Z,4416.00
2018-03-11T09:03:52.812Z,4068.00
2018-03-11T09:04:52.723Z,3276.00
2018-03-11T09:05:52.714Z,3128.00
2018-03-11T09:06:52.765Z,3404.00
2018-03-11T09:07:52.699Z,5740.00
2018-03-11T09:08:52.687Z,7348.00
2018-03-11T09:09:52.677Z,7728.00
2018-03-11T09:10:52.919Z,8084.00
2018-03-11T09:11:52.663Z,7960.00
2018-03-11T09:12:52.654Z,7976.00
2018-03-11T09:13:52.694Z,7496.00
2018-03-11T09:14:52.634Z,6768.00
2018-03-11T09:15:52.626Z,6364.00
2018-03-11T09:16:52.637Z,6112.00
2018-03-11T09:17:52.609Z,6448.00
2018-03-11T09:18:52.602Z,8020.00
2018-03-11T09:19:52.593Z,9728.00
2018-03-11T09:20:52.587Z,10964.00
2018-03-11T09:21:52.574Z,11304.00
2018-03-11T09:22:52.566Z,10856.00
2018-03-11T09:23:52.558Z,10244.00
2018-03-11T09:24:52.635Z,9324.00
2018-03-11T09:25:52.542Z,8500.00
2018-03-11T09:26:52.534Z,7924.00
2018-03-11T09:27:52.732Z,7220.00
2018-03-11T09:28:52.518Z,6912.00
2018-03-11T09:29:52.509Z,6956.00
2018-03-11T09:30:52.528Z,7384.00
2018-03-11T09:31:52.496Z,7740.00
2018-03-11T09:32:52.487Z,7992.00
2018-03-11T09:33:52.476Z,8416.00
2018-03-11T09:34:52.524Z,9068.00
2018-03-11T09:35:52.461Z,9884.00
2018-03-11T09:36:52.454Z,10908.00
2018-03-11T09:37:52.447Z,11584.00
2018-03-11T09:38:52.526Z,12156.00
2018-03-11T09:39:52.428Z,12776.00
2018-03-11T09:40:52.421Z,13180.00
2018-03-11T09:41:52.456Z,13448.00
2018-03-11T09:42:52.405Z,13468.00
2018-03-11T09:43:52.398Z,13516.00
2018-03-11T09:44:52.399Z,13448.00
2018-03-11T09:45:52.385Z,13500.00
2018-03-11T09:46:52.374Z,14028.00
2018-03-11T09:47:52.370Z,14376.00
2018-03-11T09:48:52.360Z,14560.00
2018-03-11T09:49:52.601Z,14176.00
2018-03-11T09:50:52.350Z,14240.00
2018-03-11T09:51:52.338Z,13292.00
2018-03-11T09:52:52.382Z,13336.00
2018-03-11T09:53:52.323Z,14056.00
2018-03-11T09:54:52.315Z,14620.00
2018-03-11T09:55:52.356Z,14300.00
2018-03-11T09:56:52.323Z,13260.00
2018-03-11T09:57:52.294Z,13620.00
2018-03-11T09:58:52.287Z,13276.00
2018-03-11T09:59:52.282Z,12752.00
2018-03-11T10:00:52.274Z,12556.00
2018-03-11T10:01:52.266Z,12656.00
2018-03-11T10:02:52.259Z,12692.00
2018-03-11T10:03:52.477Z,13544.00
2018-03-11T10:04:52.247Z,14124.00
2018-03-11T10:05:52.241Z,15136.00
2018-03-11T10:07:52.225Z,15172.00
2018-03-11T10:08:52.306Z,14552.00
2018-03-11T10:09:52.212Z,14404.00
2018-03-11T10:10:52.206Z,13636.00
2018-03-11T10:11:52.400Z,13632.00
2018-03-11T10:12:52.190Z,13884.00
2018-03-11T10:13:52.185Z,16352.00
2018-03-11T10:14:52.182Z,17120.00
2018-03-11T10:15:52.169Z,18112.00
2018-03-11T10:16:52.163Z,20128.00
2018-03-11T10:17:52.161Z,19776.00
2018-03-11T10:18:52.152Z,18208.00
2018-03-11T10:19:52.142Z,18048.00
2018-03-11T10:20:52.136Z,17248.00
2018-03-11T10:21:52.181Z,17184.00
2018-03-11T10:22:52.326Z,17984.00
2018-03-11T10:23:52.116Z,18016.00
2018-03-11T10:24:52.110Z,17632.00
2018-03-11T10:25:52.306Z,17824.00
2018-03-11T10:26:52.101Z,18944.00
2018-03-11T10:27:52.090Z,19520.00
2018-03-11T10:28:52.087Z,20864.00
2018-03-11T10:29:52.077Z,20960.00
2018-03-11T10:30:52.072Z,20800.00
2018-03-11T10:31:52.066Z,20704.00
2018-03-11T10:32:52.060Z,21696.00
2018-03-11T10:33:52.056Z,21088.00
2018-03-11T10:34:52.048Z,18400.00
2018-03-11T10:35:52.040Z,22208.00
2018-03-11T10:36:52.238Z,20640.00
2018-03-11T10:37:52.035Z,19616.00
2018-03-11T10:38:52.023Z,17664.00
2018-03-11T10:39:52.048Z,18112.00
2018-03-11T10:40:52.021Z,20224.00
2018-03-11T10:41:52.006Z,20576.00
2018-03-11T10:42:51.999Z,20448.00
2018-03-11T10:43:52.002Z,19552.00
2018-03-11T10:44:51.988Z,20736.00
2018-03-11T10:45:51.982Z,21184.00
2018-03-11T10:46:51.977Z,19456.00
2018-03-11T10:47:52.058Z,21184.00
2018-03-11T10:48:51.967Z,20736.00
2018-03-11T10:49:51.962Z,20704.00
2018-03-11T10:50:52.076Z,20352.00
2018-03-11T10:51:51.949Z,19424.00
2018-03-11T10:52:51.943Z,19136.00
2018-03-11T10:53:51.951Z,19232.00
2018-03-11T10:54:51.933Z,19008.00
2018-03-11T10:55:51.928Z,18816.00
2018-03-11T10:56:51.924Z,18368.00
2018-03-11T10:57:51.917Z,18496.00
2018-03-11T10:58:51.945Z,19232.00
2018-03-11T10:59:51.909Z,18688.00
2018-03-11T11:00:51.904Z,18240.00
2018-03-11T11:02:51.890Z,17088.00
2018-03-11T11:03:51.886Z,17088.00
2018-03-11T11:04:51.905Z,17216.00
2018-03-11T11:05:51.875Z,17408.00
2018-03-11T11:06:51.869Z,17760.00
2018-03-11T11:07:51.868Z,17760.00
2018-03-11T11:09:51.856Z,18080.00
2018-03-11T11:10:51.847Z,18208.00
2018-03-11T11:11:51.876Z,18528.00
2018-03-11T11:12:51.837Z,18944.00
2018-03-11T11:13:51.832Z,19232.00
2018-03-11T11:14:51.825Z,19200.00
2018-03-11T11:15:51.820Z,19008.00
2018-03-11T11:16:51.815Z,18720.00
2018-03-11T11:17:51.808Z,18208.00
2018-03-11T11:18:51.803Z,17792.00
2018-03-11T11:19:52.046Z,17344.00
2018-03-11T11:20:51.796Z,17216.00
2018-03-11T11:21:51.786Z,16704.00
2018-03-11T11:22:51.984Z,16608.00
2018-03-11T11:23:51.781Z,16704.00
2018-03-11T11:24:51.770Z,16704.00
2018-03-11T11:25:51.789Z,16576.00
2018-03-11T11:26:51.764Z,15880.00
2018-03-11T11:27:51.756Z,15912.00
2018-03-11T11:28:51.748Z,16024.00
2018-03-11T11:29:51.742Z,16056.00
2018-03-11T11:30:51.993Z,16120.00
2018-03-11T11:31:51.732Z,16004.00
2018-03-11T11:32:51.726Z,15856.00
2018-03-11T11:33:51.784Z,15668.00
2018-03-11T11:34:51.716Z,15284.00
2018-03-11T11:35:51.710Z,14824.00
2018-03-11T11:36:51.736Z,14408.00
2018-03-11T11:37:51.697Z,14144.00
2018-03-11T11:38:51.691Z,13888.00
2018-03-11T11:39:51.685Z,13652.00
2018-03-11T11:40:51.679Z,13508.00
2018-03-11T11:41:51.672Z,13364.00
2018-03-11T11:42:51.667Z,13188.00
2018-03-11T11:43:51.661Z,13088.00
2018-03-11T11:44:51.859Z,13032.00
2018-03-11T11:45:51.648Z,12936.00
2018-03-11T11:46:51.642Z,12860.00
2018-03-11T11:47:51.842Z,12792.00
2018-03-11T11:48:51.716Z,12804.00
2018-03-11T11:49:51.623Z,12812.00
2018-03-11T11:50:51.617Z,12820.00
2018-03-11T11:51:51.611Z,12436.00
2018-03-11T11:52:51.604Z,12376.00
2018-03-11T11:53:51.598Z,12412.00
2018-03-11T11:54:51.592Z,12164.00
2018-03-11T11:55:51.792Z,12040.00
2018-03-11T11:56:51.579Z,11916.00
2018-03-11T11:57:51.573Z,11880.00
2018-03-11T11:58:51.769Z,11952.00
2018-03-11T11:59:51.562Z,12008.00
2018-03-11T12:00:51.554Z,12016.00
2018-03-11T12:01:51.575Z,11944.00
2018-03-11T12:02:51.541Z,11816.00
2018-03-11T12:03:51.538Z,11692.00
2018-03-11T12:04:51.528Z,11488.00
2018-03-11T12:05:51.521Z,11216.00
2018-03-11T12:06:51.514Z,10968.00
2018-03-11T12:07:51.508Z,10784.00
2018-03-11T12:08:51.581Z,10648.00
2018-03-11T12:09:51.498Z,10588.00
2018-03-11T12:10:51.488Z,10520.00
2018-03-11T12:11:51.508Z,10448.00
2018-03-11T12:12:51.477Z,10404.00
2018-03-11T12:13:51.467Z,10356.00
2018-03-11T12:14:51.461Z,10164.00
2018-03-11T12:15:51.455Z,9504.00
2018-03-11T12:16:51.447Z,8908.00
2018-03-11T12:17:51.441Z,8804.00
2018-03-11T12:18:51.434Z,8848.00
2018-03-11T12:19:51.501Z,8940.00
2018-03-11T12:20:51.423Z,9068.00
2018-03-11T12:21:51.413Z,8916.00
2018-03-11T12:22:51.448Z,8548.00
2018-03-11T12:23:51.403Z,8564.00
2018-03-11T12:24:51.393Z,8344.00
2018-03-11T12:25:51.387Z,8384.00
2018-03-11T12:26:51.380Z,8716.00
2018-03-11T12:27:51.388Z,9168.00
2018-03-11T12:28:51.367Z,9348.00
2018-03-11T12:29:51.359Z,9144.00
2018-03-11T12:30:51.353Z,8040.00
2018-03-11T12:31:51.347Z,7176.00
2018-03-11T12:32:51.342Z,7004.00
2018-03-11T12:33:51.536Z,7668.00
2018-03-11T12:34:51.326Z,8256.00
2018-03-11T12:35:51.320Z,8668.00
2018-03-11T12:36:51.336Z,8512.00
2018-03-11T12:37:51.309Z,8344.00
2018-03-11T12:38:51.303Z,7896.00
2018-03-11T12:39:51.293Z,7040.00